Metar z pełnej godziny Komunikat METAR ze strony awiacja.imgw.pl Metar G00 EPWR METAR EPWR 230900Z 27013KT 9999 -SHRA SCT020CB SCT025 06/03 Q1023 =